createdAt,value
2019-02-20T00:00:47.012Z,79.49
2019-02-20T00:01:47.036Z,79.60
2019-02-20T00:02:46.988Z,79.70
2019-02-20T00:03:46.974Z,79.80
2019-02-20T00:04:46.961Z,79.49
2019-02-20T00:05:46.951Z,78.98
2019-02-20T00:06:47.002Z,79.08
2019-02-20T00:07:46.937Z,78.98
2019-02-20T00:08:46.926Z,78.77
2019-02-20T00:09:46.912Z,78.88
2019-02-20T00:10:46.899Z,78.98
2019-02-20T00:11:46.938Z,79.49
2019-02-20T00:12:47.021Z,79.70
2019-02-20T00:13:46.873Z,79.49
2019-02-20T00:14:46.854Z,79.80
2019-02-20T00:15:46.838Z,79.60
2019-02-20T00:16:47.074Z,79.91
2019-02-20T00:17:46.882Z,79.29
2019-02-20T00:18:46.860Z,79.39
2019-02-20T00:19:46.883Z,79.70
2019-02-20T00:20:46.846Z,79.29
2019-02-20T00:21:46.819Z,79.29
2019-02-20T00:22:46.897Z,79.63
2019-02-20T00:23:46.780Z,79.33
2019-02-20T00:24:46.789Z,79.84
2019-02-20T00:25:46.770Z,79.53
2019-02-20T00:26:46.781Z,79.63
2019-02-20T00:27:46.767Z,79.43
2019-02-20T00:28:46.808Z,79.63
2019-02-20T00:29:46.748Z,79.63
2019-02-20T00:30:46.736Z,79.84
2019-02-20T00:31:46.707Z,80.05
2019-02-20T00:32:47.479Z,80.26
2019-02-20T00:33:46.703Z,80.26
2019-02-20T00:34:46.697Z,79.94
2019-02-20T00:35:46.854Z,80.05
2019-02-20T00:36:46.675Z,80.15
2019-02-20T00:37:46.661Z,80.15
2019-02-20T00:38:46.663Z,79.53
2019-02-20T00:39:46.640Z,79.91
2019-02-20T00:40:46.687Z,79.94
2019-02-20T00:41:46.764Z,79.43
2019-02-20T00:42:46.690Z,79.43
2019-02-20T00:43:46.586Z,79.70
2019-02-20T00:44:46.587Z,79.63
2019-02-20T00:45:46.585Z,79.74
2019-02-20T00:46:46.631Z,79.74
2019-02-20T00:47:46.538Z,79.70
2019-02-20T00:48:46.531Z,79.43
2019-02-20T00:49:46.506Z,79.43
2019-02-20T00:50:46.496Z,79.74
2019-02-20T00:51:46.605Z,80.36
2019-02-20T00:52:49.818Z,79.94
2019-02-20T00:53:46.463Z,79.84
2019-02-20T00:54:46.452Z,80.15
2019-02-20T00:55:46.467Z,80.05
2019-02-20T00:56:46.455Z,79.94
2019-02-20T00:57:46.682Z,79.84
2019-02-20T00:58:46.420Z,80.05
2019-02-20T00:59:46.430Z,79.94
2019-02-20T01:00:46.414Z,80.15
2019-02-20T01:01:46.408Z,79.84
2019-02-20T01:02:46.399Z,80.15
2019-02-20T01:03:46.489Z,79.94
2019-02-20T01:04:46.360Z,79.94
2019-02-20T01:05:46.339Z,80.26
2019-02-20T01:06:46.301Z,79.94
2019-02-20T01:07:46.381Z,80.05
2019-02-20T01:08:46.320Z,80.05
2019-02-20T01:09:46.380Z,80.05
2019-02-20T01:10:46.285Z,80.05
2019-02-20T01:11:46.291Z,80.05
2019-02-20T01:12:46.284Z,80.05
2019-02-20T01:13:46.238Z,79.74
2019-02-20T01:14:46.231Z,79.74
2019-02-20T01:15:46.343Z,80.15
2019-02-20T01:16:46.203Z,79.94
2019-02-20T01:17:46.182Z,80.26
2019-02-20T01:18:46.356Z,80.01
2019-02-20T01:19:46.186Z,79.94
2019-02-20T01:20:46.184Z,79.94
2019-02-20T01:21:46.143Z,79.80
2019-02-20T01:22:46.145Z,80.01
2019-02-20T01:23:46.147Z,79.49
2019-02-20T01:24:46.198Z,79.94
2019-02-20T01:25:46.193Z,79.49
2019-02-20T01:26:46.123Z,79.39
2019-02-20T01:27:46.132Z,79.63
2019-02-20T01:28:46.111Z,79.80
2019-02-20T01:29:46.052Z,79.53
2019-02-20T01:30:46.063Z,79.43
2019-02-20T01:31:46.196Z,80.15
2019-02-20T01:32:46.010Z,79.88
2019-02-20T01:33:46.019Z,80.19
2019-02-20T01:34:45.992Z,80.60
2019-02-20T01:35:46.006Z,80.05
2019-02-20T01:36:46.006Z,80.29
2019-02-20T01:37:45.945Z,80.29
2019-02-20T01:38:45.977Z,80.26
2019-02-20T01:39:45.941Z,80.05
2019-02-20T01:40:46.022Z,79.74
2019-02-20T01:41:45.993Z,80.05
2019-02-20T01:42:45.933Z,79.94
2019-02-20T01:43:45.903Z,79.84
2019-02-20T01:44:45.879Z,79.84
2019-02-20T01:45:45.886Z,79.84
2019-02-20T01:46:45.938Z,79.84
2019-02-20T01:47:45.878Z,79.63
2019-02-20T01:48:45.866Z,79.63
2019-02-20T01:49:45.838Z,80.05
2019-02-20T01:50:45.849Z,80.05
2019-02-20T01:51:45.798Z,80.19
2019-02-20T01:52:45.917Z,79.94
2019-02-20T01:53:45.784Z,79.84
2019-02-20T01:54:45.815Z,79.63
2019-02-20T01:55:45.819Z,79.88
2019-02-20T01:56:45.853Z,80.19
2019-02-20T01:57:45.758Z,79.88
2019-02-20T01:58:45.812Z,79.98
2019-02-20T01:59:45.733Z,80.71
2019-02-20T02:00:45.723Z,80.08
2019-02-20T02:01:45.737Z,80.08
2019-02-20T02:02:45.794Z,80.71
2019-02-20T02:03:45.676Z,80.50
2019-02-20T02:04:45.704Z,80.19
2019-02-20T02:05:45.662Z,80.08
2019-02-20T02:06:45.625Z,80.05
2019-02-20T02:07:45.713Z,80.50
2019-02-20T02:08:45.654Z,80.08
2019-02-20T02:09:45.629Z,80.67
2019-02-20T02:10:45.632Z,80.50
2019-02-20T02:11:45.587Z,80.71
2019-02-20T02:12:45.591Z,80.05
2019-02-20T02:13:45.582Z,80.29
2019-02-20T02:14:45.621Z,80.71
2019-02-20T02:15:45.556Z,80.71
2019-02-20T02:16:45.538Z,81.43
2019-02-20T02:17:45.586Z,80.81
2019-02-20T02:18:46.494Z,80.29
2019-02-20T02:19:45.482Z,81.12
2019-02-20T02:20:45.510Z,80.91
2019-02-20T02:21:45.496Z,80.91
2019-02-20T02:22:45.495Z,81.02
2019-02-20T02:23:47.598Z,80.71
2019-02-20T02:24:45.542Z,80.71
2019-02-20T02:25:45.467Z,81.02
2019-02-20T02:26:45.444Z,80.81
2019-02-20T02:27:45.391Z,80.81
2019-02-20T02:28:45.426Z,80.40
2019-02-20T02:29:45.448Z,81.02
2019-02-20T02:30:45.362Z,80.81
2019-02-20T02:31:45.468Z,80.91
2019-02-20T02:32:45.384Z,80.50
2019-02-20T02:33:45.362Z,80.74
2019-02-20T02:34:45.376Z,81.37
2019-02-20T02:35:45.399Z,81.37
2019-02-20T02:36:45.494Z,81.05
2019-02-20T02:37:45.346Z,81.26
2019-02-20T02:38:45.409Z,81.33
2019-02-20T02:39:45.279Z,81.26
2019-02-20T02:40:45.288Z,81.16
2019-02-20T02:41:45.265Z,81.43
2019-02-20T02:42:46.002Z,81.68
2019-02-20T02:43:45.240Z,81.54
2019-02-20T02:44:45.231Z,80.95
2019-02-20T02:45:45.289Z,81.16
2019-02-20T02:46:45.234Z,81.78
2019-02-20T02:47:45.213Z,81.88
2019-02-20T02:48:45.155Z,81.78
2019-02-20T02:49:45.190Z,81.78
2019-02-20T02:50:45.262Z,81.95
2019-02-20T02:51:45.198Z,82.09
2019-02-20T02:52:45.161Z,81.99
2019-02-20T02:53:45.101Z,81.88
2019-02-20T02:54:45.216Z,81.99
2019-02-20T02:55:45.221Z,81.57
2019-02-20T02:56:45.075Z,82.19
2019-02-20T02:57:45.080Z,81.99
2019-02-20T02:58:45.088Z,81.84
2019-02-20T02:59:45.068Z,81.88
2019-02-20T03:00:45.099Z,81.57
2019-02-20T03:01:45.030Z,81.43
2019-02-20T03:02:45.041Z,81.47
2019-02-20T03:03:45.602Z,81.74
2019-02-20T03:04:45.020Z,81.99
2019-02-20T03:05:44.986Z,81.88
2019-02-20T03:06:45.014Z,81.74
2019-02-20T03:07:45.184Z,81.33
2019-02-20T03:08:44.943Z,81.43
2019-02-20T03:09:44.937Z,81.12
2019-02-20T03:10:45.142Z,81.54
2019-02-20T03:11:44.924Z,81.54
2019-02-20T03:12:44.918Z,81.64
2019-02-20T03:13:45.183Z,81.43
2019-02-20T03:14:44.913Z,81.54
2019-02-20T03:15:44.878Z,81.64
2019-02-20T03:16:44.843Z,81.33
2019-02-20T03:17:44.864Z,81.33
2019-02-20T03:18:45.507Z,81.33
2019-02-20T03:19:44.899Z,81.43
2019-02-20T03:20:44.819Z,81.33
2019-02-20T03:21:44.870Z,81.12
2019-02-20T03:22:44.797Z,81.54
2019-02-20T03:23:44.886Z,81.43
2019-02-20T03:24:44.869Z,80.91
2019-02-20T03:25:44.768Z,81.23
2019-02-20T03:26:44.731Z,80.50
2019-02-20T03:27:44.761Z,81.12
2019-02-20T03:28:44.732Z,81.23
2019-02-20T03:29:44.820Z,80.71
2019-02-20T03:30:44.853Z,81.02
2019-02-20T03:31:44.738Z,80.81
2019-02-20T03:32:44.700Z,80.81
2019-02-20T03:33:44.660Z,80.81
2019-02-20T03:34:44.822Z,81.02
2019-02-20T03:35:44.769Z,80.60
2019-02-20T03:36:44.868Z,81.12
2019-02-20T03:37:44.667Z,80.81
2019-02-20T03:38:44.636Z,81.19
2019-02-20T03:39:44.626Z,80.98
2019-02-20T03:40:44.606Z,80.98
2019-02-20T03:41:44.900Z,80.77
2019-02-20T03:42:44.715Z,81.29
2019-02-20T03:43:45.513Z,80.26
2019-02-20T03:44:44.547Z,80.57
2019-02-20T03:45:44.669Z,80.46
2019-02-20T03:46:44.704Z,80.46
2019-02-20T03:47:44.527Z,80.36
2019-02-20T03:48:44.567Z,80.36
2019-02-20T03:49:44.670Z,80.15
2019-02-20T03:50:45.505Z,80.46
2019-02-20T03:51:44.588Z,79.94
2019-02-20T03:52:44.521Z,80.26
2019-02-20T03:53:51.714Z,80.26
2019-02-20T03:54:45.454Z,79.63
2019-02-20T03:55:44.458Z,79.84
2019-02-20T03:56:44.510Z,79.60
2019-02-20T03:57:44.483Z,79.84
2019-02-20T03:58:44.501Z,80.11
2019-02-20T03:59:44.385Z,79.91
2019-02-20T04:00:44.427Z,80.01
2019-02-20T04:01:44.522Z,79.49
2019-02-20T04:02:44.536Z,79.91
2019-02-20T04:03:44.414Z,79.80
2019-02-20T04:04:44.368Z,79.70
2019-02-20T04:05:44.386Z,79.70
2019-02-20T04:06:44.332Z,79.39
2019-02-20T04:07:44.347Z,79.53
2019-02-20T04:08:44.383Z,79.12
2019-02-20T04:09:44.289Z,79.43
2019-02-20T04:10:44.376Z,79.43
2019-02-20T04:11:44.321Z,79.84
2019-02-20T04:12:44.378Z,79.74
2019-02-20T04:13:44.260Z,79.47
2019-02-20T04:14:44.393Z,80.26
2019-02-20T04:15:44.495Z,80.29
2019-02-20T04:16:44.218Z,80.08
2019-02-20T04:17:44.358Z,79.88
2019-02-20T04:18:44.320Z,79.67
2019-02-20T04:19:44.217Z,79.98
2019-02-20T04:20:45.096Z,80.19
2019-02-20T04:21:44.173Z,80.36
2019-02-20T04:22:44.238Z,80.26
2019-02-20T04:23:44.149Z,80.08
2019-02-20T04:24:44.212Z,79.98
2019-02-20T04:25:44.311Z,80.19
2019-02-20T04:26:44.144Z,80.08
2019-02-20T04:27:51.620Z,79.98
2019-02-20T04:28:44.096Z,79.98
2019-02-20T04:29:44.163Z,79.98
2019-02-20T04:30:44.055Z,79.98
2019-02-20T04:31:44.096Z,79.98
2019-02-20T04:32:44.060Z,79.94
2019-02-20T04:33:44.040Z,79.67
2019-02-20T04:34:44.024Z,80.08
2019-02-20T04:35:44.151Z,80.36
2019-02-20T04:36:44.056Z,80.15
2019-02-20T04:37:43.996Z,79.94
2019-02-20T04:38:43.994Z,79.43
2019-02-20T04:39:43.997Z,79.57
2019-02-20T04:40:43.942Z,79.67
2019-02-20T04:41:44.013Z,80.15
2019-02-20T04:42:43.929Z,80.05
2019-02-20T04:43:43.963Z,80.40
2019-02-20T04:44:43.897Z,80.15
2019-02-20T04:45:43.913Z,80.15
2019-02-20T04:46:43.997Z,80.36
2019-02-20T04:47:43.863Z,80.15
2019-02-20T04:48:43.871Z,79.53
2019-02-20T04:49:43.954Z,79.63
2019-02-20T04:50:43.813Z,79.63
2019-02-20T04:51:43.829Z,79.84
2019-02-20T04:52:43.865Z,79.84
2019-02-20T04:53:43.764Z,79.80
2019-02-20T04:54:44.553Z,79.63
2019-02-20T04:55:43.810Z,79.74
2019-02-20T04:56:43.749Z,79.94
2019-02-20T04:57:43.824Z,79.43
2019-02-20T04:58:43.807Z,80.05
2019-02-20T04:59:43.707Z,79.74
2019-02-20T05:00:43.763Z,79.84
2019-02-20T05:01:43.662Z,79.33
2019-02-20T05:02:43.693Z,79.53
2019-02-20T05:03:43.690Z,80.15
2019-02-20T05:04:43.717Z,79.74
2019-02-20T05:05:43.691Z,79.77
2019-02-20T05:06:43.653Z,80.05
2019-02-20T05:07:43.625Z,79.53
2019-02-20T05:08:43.716Z,79.53
2019-02-20T05:09:43.638Z,79.43
2019-02-20T05:10:43.627Z,79.67
2019-02-20T05:11:43.662Z,79.47
2019-02-20T05:12:43.608Z,79.57
2019-02-20T05:13:43.596Z,80.29
2019-02-20T05:14:43.732Z,79.77
2019-02-20T05:15:43.582Z,80.19
2019-02-20T05:16:43.633Z,80.08
2019-02-20T05:17:43.580Z,80.08
2019-02-20T05:18:43.511Z,79.88
2019-02-20T05:19:43.597Z,80.08
2019-02-20T05:20:43.489Z,80.19
2019-02-20T05:21:43.477Z,80.19
2019-02-20T05:22:43.488Z,79.67
2019-02-20T05:23:43.459Z,80.15
2019-02-20T05:24:43.530Z,80.19
2019-02-20T05:25:43.462Z,79.98
2019-02-20T05:26:43.462Z,80.19
2019-02-20T05:27:43.468Z,80.29
2019-02-20T05:28:43.410Z,79.98
2019-02-20T05:29:43.383Z,80.50
2019-02-20T05:30:43.560Z,80.08
2019-02-20T05:31:44.055Z,80.50
2019-02-20T05:32:43.388Z,80.19
2019-02-20T05:33:43.342Z,80.50
2019-02-20T05:34:43.371Z,80.71
2019-02-20T05:35:43.336Z,79.98
2019-02-20T05:36:43.330Z,80.71
2019-02-20T05:37:43.365Z,80.74
2019-02-20T05:38:43.286Z,80.71
2019-02-20T05:39:43.291Z,80.71
2019-02-20T05:40:43.254Z,80.60
2019-02-20T05:41:43.454Z,80.74
2019-02-20T05:42:43.234Z,80.33
2019-02-20T05:43:43.242Z,80.60
2019-02-20T05:44:43.241Z,80.64
2019-02-20T05:45:43.205Z,80.85
2019-02-20T05:46:43.224Z,80.54
2019-02-20T05:47:43.312Z,81.37
2019-02-20T05:48:43.266Z,81.37
2019-02-20T05:49:43.242Z,81.23
2019-02-20T05:50:43.187Z,81.47
2019-02-20T05:51:43.167Z,81.16
2019-02-20T05:52:43.205Z,81.47
2019-02-20T05:53:43.130Z,81.37
2019-02-20T05:54:43.147Z,81.37
2019-02-20T05:55:43.109Z,80.85
2019-02-20T05:56:43.121Z,81.05
2019-02-20T05:57:43.238Z,80.85
2019-02-20T05:58:43.070Z,81.12
2019-02-20T05:59:43.172Z,81.16
2019-02-20T06:00:43.053Z,80.81
2019-02-20T06:01:43.043Z,81.05
2019-02-20T06:02:43.116Z,81.23
2019-02-20T06:03:43.368Z,80.81
2019-02-20T06:04:43.005Z,81.05
2019-02-20T06:05:42.997Z,81.23
2019-02-20T06:06:42.955Z,81.33
2019-02-20T06:07:42.980Z,81.23
2019-02-20T06:08:42.947Z,81.23
2019-02-20T06:09:42.961Z,81.12
2019-02-20T06:10:42.988Z,81.02
2019-02-20T06:11:42.916Z,81.43
2019-02-20T06:12:42.889Z,80.19
2019-02-20T06:13:42.897Z,81.43
2019-02-20T06:14:42.932Z,80.36
2019-02-20T06:15:43.565Z,80.29
2019-02-20T06:16:42.881Z,80.08
2019-02-20T06:17:42.887Z,80.08
2019-02-20T06:18:42.861Z,80.40
2019-02-20T06:19:42.853Z,80.40
2019-02-20T06:20:43.134Z,81.43
2019-02-20T06:21:42.820Z,81.95
2019-02-20T06:22:42.817Z,82.67
2019-02-20T06:23:42.998Z,81.84
2019-02-20T06:24:44.334Z,81.23
2019-02-20T06:25:42.799Z,81.43
2019-02-20T06:26:42.888Z,81.02
2019-02-20T06:27:43.573Z,80.29
2019-02-20T06:28:42.791Z,80.08
2019-02-20T06:29:42.772Z,80.60
2019-02-20T06:30:43.657Z,80.60
2019-02-20T06:31:42.706Z,80.08
2019-02-20T06:32:42.683Z,80.91
2019-02-20T06:33:42.721Z,80.50
2019-02-20T06:34:42.743Z,80.29
2019-02-20T06:35:42.646Z,80.81
2019-02-20T06:36:42.666Z,80.50
2019-02-20T06:37:42.656Z,80.50
2019-02-20T06:38:42.617Z,80.50
2019-02-20T06:39:42.619Z,80.60
2019-02-20T06:40:42.641Z,80.81
2019-02-20T06:41:42.590Z,80.19
2019-02-20T06:42:42.685Z,80.19
2019-02-20T06:43:42.567Z,80.91
2019-02-20T06:44:42.543Z,80.71
2019-02-20T06:45:42.604Z,80.91
2019-02-20T06:46:42.542Z,80.40
2019-02-20T06:47:42.506Z,80.40
2019-02-20T06:48:42.504Z,80.50
2019-02-20T06:49:42.482Z,80.08
2019-02-20T06:50:42.548Z,80.71
2019-02-20T06:51:42.532Z,80.08
2019-02-20T06:52:42.465Z,80.29
2019-02-20T06:53:42.424Z,80.40
2019-02-20T06:54:42.478Z,80.50
2019-02-20T06:55:42.434Z,80.08
2019-02-20T06:56:42.422Z,80.19
2019-02-20T06:57:42.462Z,80.71
2019-02-20T06:58:43.073Z,80.29
2019-02-20T06:59:42.384Z,80.29
2019-02-20T07:00:42.379Z,80.19
2019-02-20T07:01:42.345Z,80.29
2019-02-20T07:02:42.408Z,80.08
2019-02-20T07:03:42.358Z,80.29
2019-02-20T07:04:42.348Z,80.29
2019-02-20T07:05:42.303Z,80.29
2019-02-20T07:06:42.314Z,80.08
2019-02-20T07:07:42.364Z,80.50
2019-02-20T07:08:42.361Z,80.29
2019-02-20T07:09:42.341Z,80.40
2019-02-20T07:10:42.256Z,80.50
2019-02-20T07:11:42.359Z,80.81
2019-02-20T07:12:42.223Z,80.81
2019-02-20T07:13:42.298Z,80.29
2019-02-20T07:14:42.203Z,81.02
2019-02-20T07:15:42.200Z,80.91
2019-02-20T07:16:42.236Z,81.23
2019-02-20T07:17:42.221Z,80.91
2019-02-20T07:18:42.190Z,81.33
2019-02-20T07:19:42.186Z,80.46
2019-02-20T07:20:42.160Z,80.71
2019-02-20T07:21:42.163Z,81.23
2019-02-20T07:22:42.271Z,81.54
2019-02-20T07:23:42.107Z,80.71
2019-02-20T07:24:42.117Z,81.33
2019-02-20T07:25:42.295Z,80.19
2019-02-20T07:26:42.086Z,81.23
2019-02-20T07:27:42.075Z,80.81
2019-02-20T07:28:42.166Z,81.02
2019-02-20T07:29:42.056Z,81.12
2019-02-20T07:30:42.030Z,81.02
2019-02-20T07:31:42.150Z,81.33
2019-02-20T07:32:42.049Z,81.33
2019-02-20T07:33:41.993Z,81.54
2019-02-20T07:34:42.011Z,81.12
2019-02-20T07:35:42.102Z,81.54
2019-02-20T07:36:41.975Z,81.39
2019-02-20T07:37:41.939Z,80.81
2019-02-20T07:38:41.953Z,81.02
2019-02-20T07:39:41.938Z,81.12
2019-02-20T07:40:41.956Z,81.02
2019-02-20T07:41:42.019Z,81.02
2019-02-20T07:42:41.928Z,80.77
2019-02-20T07:43:41.931Z,80.98
2019-02-20T07:44:41.966Z,81.09
2019-02-20T07:45:41.914Z,81.29
2019-02-20T07:46:41.851Z,81.39
2019-02-20T07:47:41.865Z,81.09
2019-02-20T07:48:41.907Z,80.98
2019-02-20T07:49:42.069Z,80.77
2019-02-20T07:50:41.819Z,81.19
2019-02-20T07:51:41.819Z,81.19
2019-02-20T07:52:41.795Z,81.29
2019-02-20T07:53:41.803Z,80.11
2019-02-20T07:54:41.780Z,80.53
2019-02-20T07:55:41.781Z,80.36
2019-02-20T07:56:41.761Z,80.63
2019-02-20T07:57:41.742Z,80.53
2019-02-20T07:58:41.729Z,80.63
2019-02-20T07:59:41.742Z,80.01
2019-02-20T08:00:41.840Z,80.22
2019-02-20T08:01:41.701Z,80.53
2019-02-20T08:02:41.683Z,79.70
2019-02-20T08:03:41.662Z,79.91
2019-02-20T08:04:41.677Z,79.25
2019-02-20T08:05:41.836Z,79.66
2019-02-20T08:06:41.678Z,79.66
2019-02-20T08:07:41.620Z,79.36
2019-02-20T08:08:41.768Z,79.77
2019-02-20T08:09:41.621Z,79.77
2019-02-20T08:10:41.588Z,79.46
2019-02-20T08:11:41.571Z,79.32
2019-02-20T08:12:41.660Z,79.66
2019-02-20T08:13:41.575Z,79.42
2019-02-20T08:14:41.541Z,79.42
2019-02-20T08:15:41.547Z,79.11
2019-02-20T08:16:41.524Z,79.11
2019-02-20T08:17:41.578Z,78.91
2019-02-20T08:18:41.507Z,78.80
2019-02-20T08:19:41.508Z,78.35
2019-02-20T08:20:41.478Z,78.35
2019-02-20T08:21:41.517Z,78.56
2019-02-20T08:22:41.554Z,78.56
2019-02-20T08:23:41.442Z,78.56
2019-02-20T08:24:42.085Z,78.66
2019-02-20T08:25:41.452Z,77.84
2019-02-20T08:26:41.453Z,77.91
2019-02-20T08:27:41.432Z,78.01
2019-02-20T08:28:41.470Z,77.59
2019-02-20T08:29:41.461Z,77.59
2019-02-20T08:30:41.394Z,77.32
2019-02-20T08:31:41.361Z,76.77
2019-02-20T08:32:41.376Z,77.18
2019-02-20T08:33:41.343Z,77.08
2019-02-20T08:34:41.334Z,77.59
2019-02-20T08:35:41.382Z,76.42
2019-02-20T08:36:41.327Z,76.63
2019-02-20T08:37:41.347Z,77.04
2019-02-20T08:38:41.270Z,76.67
2019-02-20T08:39:41.257Z,77.04
2019-02-20T08:40:41.267Z,77.04
2019-02-20T08:41:41.336Z,76.84
2019-02-20T08:42:41.233Z,76.49
2019-02-20T08:43:41.295Z,76.59
2019-02-20T08:44:41.230Z,76.80
2019-02-20T08:45:41.223Z,75.91
2019-02-20T08:46:41.214Z,76.08
2019-02-20T08:47:41.155Z,75.98
2019-02-20T08:48:42.086Z,75.56
2019-02-20T08:49:41.179Z,75.67
2019-02-20T08:50:41.169Z,76.08
2019-02-20T08:51:41.200Z,75.77
2019-02-20T08:52:41.182Z,75.67
2019-02-20T08:53:41.148Z,74.95
2019-02-20T08:54:41.198Z,75.01
2019-02-20T08:55:41.098Z,75.12
2019-02-20T08:56:41.087Z,75.01
2019-02-20T08:57:41.146Z,75.63
2019-02-20T08:58:41.046Z,75.01
2019-02-20T08:59:41.133Z,75.12
2019-02-20T09:00:41.074Z,73.98
2019-02-20T09:01:41.009Z,74.60
2019-02-20T09:02:41.022Z,75.12
2019-02-20T09:03:41.010Z,74.80
2019-02-20T09:04:41.079Z,75.01
2019-02-20T09:05:41.032Z,74.88
2019-02-20T09:06:40.990Z,74.29
2019-02-20T09:07:40.942Z,74.46
2019-02-20T09:08:40.948Z,74.26
2019-02-20T09:09:40.947Z,73.85
2019-02-20T09:10:40.979Z,73.64
2019-02-20T09:11:40.979Z,73.43
2019-02-20T09:12:40.897Z,73.85
2019-02-20T09:13:40.871Z,73.64
2019-02-20T09:14:41.588Z,74.36
2019-02-20T09:15:40.951Z,73.74
2019-02-20T09:16:40.847Z,74.12
2019-02-20T09:17:40.856Z,74.22
2019-02-20T09:18:40.867Z,74.12
2019-02-20T09:19:40.795Z,73.71
2019-02-20T09:20:40.884Z,73.30
2019-02-20T09:21:40.874Z,73.19
2019-02-20T09:22:40.833Z,73.09
2019-02-20T09:23:41.946Z,73.30
2019-02-20T09:24:40.865Z,73.19
2019-02-20T09:25:41.779Z,73.19
2019-02-20T09:26:40.895Z,73.19
2019-02-20T09:27:40.741Z,73.09
2019-02-20T09:28:40.897Z,73.19
2019-02-20T09:29:40.704Z,73.19
2019-02-20T09:30:40.711Z,73.06
2019-02-20T09:31:40.807Z,73.06
2019-02-20T09:32:40.747Z,73.16
2019-02-20T09:33:40.686Z,72.96
2019-02-20T09:34:40.648Z,73.26
2019-02-20T09:35:40.656Z,72.96
2019-02-20T09:36:40.633Z,73.06
2019-02-20T09:37:40.615Z,73.02
2019-02-20T09:38:40.663Z,72.92
2019-02-20T09:39:40.597Z,72.30
2019-02-20T09:40:40.584Z,73.02
2019-02-20T09:41:40.633Z,72.78
2019-02-20T09:42:40.578Z,72.61
2019-02-20T09:43:40.673Z,72.27
2019-02-20T09:44:40.532Z,72.30
2019-02-20T09:45:42.856Z,72.81
2019-02-20T09:46:40.558Z,72.58
2019-02-20T09:47:40.607Z,72.68
2019-02-20T09:48:40.593Z,72.47
2019-02-20T09:49:40.479Z,72.68
2019-02-20T09:50:40.486Z,71.86
2019-02-20T09:51:40.499Z,71.86
2019-02-20T09:52:40.451Z,71.75
2019-02-20T09:53:40.465Z,71.86
2019-02-20T09:54:40.510Z,71.51
2019-02-20T09:55:40.431Z,71.83
2019-02-20T09:56:40.406Z,71.72
2019-02-20T09:57:40.404Z,71.93
2019-02-20T09:58:40.372Z,71.83
2019-02-20T09:59:40.436Z,71.72
2019-02-20T10:00:40.349Z,71.69
2019-02-20T10:01:40.387Z,71.72
2019-02-20T10:02:40.353Z,71.51
2019-02-20T10:03:40.472Z,71.69
2019-02-20T10:04:40.325Z,72.10
2019-02-20T10:05:40.385Z,71.59
2019-02-20T10:06:40.307Z,71.79
2019-02-20T10:07:40.324Z,71.69
2019-02-20T10:08:40.390Z,71.76
2019-02-20T10:09:40.256Z,71.28
2019-02-20T10:10:40.307Z,71.45
2019-02-20T10:11:40.371Z,71.55
2019-02-20T10:12:40.231Z,71.55
2019-02-20T10:13:40.210Z,71.97
2019-02-20T10:14:40.425Z,72.68
2019-02-20T10:15:41.103Z,71.45
2019-02-20T10:16:40.207Z,71.45
2019-02-20T10:17:40.185Z,71.42
2019-02-20T10:18:40.185Z,71.31
2019-02-20T10:19:40.144Z,71.42
2019-02-20T10:20:40.197Z,71.31
2019-02-20T10:21:40.165Z,70.97
2019-02-20T10:22:40.136Z,70.97
2019-02-20T10:23:40.176Z,70.77
2019-02-20T10:24:40.081Z,71.08
2019-02-20T10:25:40.082Z,71.18
2019-02-20T10:26:40.071Z,71.15
2019-02-20T10:27:40.183Z,69.51
2019-02-20T10:28:40.044Z,70.22
2019-02-20T10:29:40.137Z,69.71
2019-02-20T10:30:40.067Z,69.51
2019-02-20T10:31:40.020Z,69.54
2019-02-20T10:32:40.027Z,70.67
2019-02-20T10:33:40.037Z,71.11
2019-02-20T10:34:40.087Z,70.67
2019-02-20T10:35:40.034Z,70.60
2019-02-20T10:36:39.970Z,71.48
2019-02-20T10:37:39.968Z,71.18
2019-02-20T10:38:39.994Z,71.08
2019-02-20T10:39:39.930Z,70.87
2019-02-20T10:40:39.908Z,70.56
2019-02-20T10:41:39.916Z,71.42
2019-02-20T10:42:39.885Z,71.42
2019-02-20T10:43:39.981Z,71.31
2019-02-20T10:44:39.875Z,71.42
2019-02-20T10:45:39.922Z,72.14
2019-02-20T10:46:39.900Z,72.55
2019-02-20T10:47:39.939Z,72.75
2019-02-20T10:48:39.873Z,72.14
2019-02-20T10:49:39.844Z,72.51
2019-02-20T10:50:39.811Z,72.61
2019-02-20T10:51:39.787Z,71.39
2019-02-20T10:52:39.788Z,71.69
2019-02-20T10:53:39.874Z,72.61
2019-02-20T10:54:39.756Z,71.35
2019-02-20T10:55:39.781Z,71.66
2019-02-20T10:56:39.748Z,71.25
2019-02-20T10:57:39.748Z,70.84
2019-02-20T10:58:39.723Z,71.01
2019-02-20T10:59:39.731Z,71.22
2019-02-20T11:01:48.454Z,70.57
2019-02-20T11:02:48.421Z,70.36
2019-02-20T11:03:48.418Z,69.95
2019-02-20T11:04:50.124Z,69.10
2019-02-20T11:05:48.462Z,69.03
2019-02-20T11:06:48.382Z,69.24
2019-02-20T11:07:48.364Z,69.10
2019-02-20T11:08:48.379Z,68.79
2019-02-20T11:09:48.351Z,69.13
2019-02-20T11:10:48.331Z,68.79
2019-02-20T11:11:48.316Z,68.69
2019-02-20T11:12:50.103Z,69.20
2019-02-20T11:13:48.319Z,68.90
2019-02-20T11:14:48.992Z,69.17
2019-02-20T11:15:48.275Z,67.94
2019-02-20T11:16:48.259Z,67.97
2019-02-20T11:17:48.247Z,67.64
2019-02-20T11:18:48.338Z,67.74
2019-02-20T11:19:48.232Z,67.43
2019-02-20T11:20:48.697Z,67.50
2019-02-20T11:21:48.264Z,67.43
2019-02-20T11:22:48.623Z,66.99
2019-02-20T11:23:48.181Z,66.69
2019-02-20T11:24:48.195Z,65.77
2019-02-20T11:25:48.162Z,65.08
2019-02-20T11:26:54.729Z,64.77
2019-02-20T11:27:49.139Z,65.28
2019-02-20T11:28:48.127Z,65.36
2019-02-20T11:29:48.140Z,64.57
2019-02-20T11:30:48.107Z,64.47
2019-02-20T11:31:48.094Z,63.62
2019-02-20T11:32:48.081Z,63.65
2019-02-20T11:33:48.096Z,63.75
2019-02-20T11:34:48.568Z,64.16
2019-02-20T11:35:48.056Z,64.36
2019-02-20T11:36:49.426Z,64.87
2019-02-20T11:37:48.081Z,65.08
2019-02-20T11:38:48.027Z,65.08
2019-02-20T11:39:48.001Z,64.84
2019-02-20T11:40:47.994Z,63.85
2019-02-20T11:41:47.985Z,64.57
2019-02-20T11:42:47.968Z,64.06
2019-02-20T11:43:47.999Z,63.85
2019-02-20T11:44:47.955Z,63.75
2019-02-20T11:45:47.944Z,63.54
2019-02-20T11:46:47.946Z,64.06
2019-02-20T11:47:47.941Z,63.65
2019-02-20T11:48:47.921Z,63.72
2019-02-20T11:49:47.895Z,63.82
2019-02-20T11:50:48.038Z,63.72
2019-02-20T11:51:47.877Z,63.89
2019-02-20T11:52:47.852Z,63.07
2019-02-20T11:53:47.891Z,62.66
2019-02-20T11:54:47.839Z,63.28
2019-02-20T11:55:47.823Z,62.57
2019-02-20T11:56:47.808Z,63.39
2019-02-20T11:57:47.819Z,63.07
2019-02-20T11:58:47.923Z,63.28
2019-02-20T11:59:47.802Z,62.66
2019-02-20T12:00:47.773Z,62.26
2019-02-20T12:01:47.815Z,62.26
2019-02-20T12:02:47.781Z,63.28
2019-02-20T12:03:47.740Z,62.05
2019-02-20T12:04:47.762Z,62.46
2019-02-20T12:05:47.714Z,61.54
2019-02-20T12:06:47.738Z,61.88
2019-02-20T12:07:47.684Z,62.16
2019-02-20T12:08:47.687Z,62.16
2019-02-20T12:09:47.723Z,61.75
2019-02-20T12:10:47.656Z,61.67
2019-02-20T12:11:47.770Z,61.57
2019-02-20T12:12:47.633Z,62.08
2019-02-20T12:13:47.662Z,62.08
2019-02-20T12:14:47.732Z,63.18
2019-02-20T12:15:47.746Z,62.39
2019-02-20T12:16:47.647Z,62.26
2019-02-20T12:17:47.575Z,62.29
2019-02-20T12:18:47.607Z,62.16
2019-02-20T12:19:47.583Z,62.05
2019-02-20T12:20:47.626Z,62.16
2019-02-20T12:21:47.585Z,62.05
2019-02-20T12:22:47.539Z,62.02
2019-02-20T12:23:47.538Z,62.13
2019-02-20T12:24:47.614Z,61.41
2019-02-20T12:25:47.505Z,61.72
2019-02-20T12:26:47.525Z,61.41
2019-02-20T12:27:47.471Z,61.21
2019-02-20T12:28:47.519Z,61.41
2019-02-20T12:29:47.502Z,61.28
2019-02-20T12:30:47.661Z,61.28
2019-02-20T12:31:52.486Z,61.18
2019-02-20T12:32:48.412Z,60.03
2019-02-20T12:33:47.501Z,60.33
2019-02-20T12:34:47.433Z,61.05
2019-02-20T12:35:47.445Z,60.74
2019-02-20T12:36:47.494Z,59.92
2019-02-20T12:37:47.459Z,59.69
2019-02-20T12:38:47.395Z,59.08
2019-02-20T12:39:47.382Z,59.69
2019-02-20T12:40:47.374Z,59.08
2019-02-20T12:41:47.396Z,58.37
2019-02-20T12:42:47.410Z,57.83
2019-02-20T12:43:47.344Z,57.93
2019-02-20T12:44:47.350Z,56.88
2019-02-20T12:45:49.016Z,57.04
2019-02-20T12:46:47.820Z,56.20
2019-02-20T12:47:47.304Z,55.58
2019-02-20T12:48:47.381Z,54.64
2019-02-20T12:49:47.271Z,54.31
2019-02-20T12:50:47.261Z,53.67
2019-02-20T12:51:47.243Z,53.80
2019-02-20T12:52:47.298Z,53.70
2019-02-20T12:54:03.780Z,53.55